sensor_id;sensor_type;location;lat;lon;timestamp;temperature;humidity
63371;DHT22;49504;48.336;14.472;2023-01-19T00:01:04;26.00;41.90
63371;DHT22;49504;48.336;14.472;2023-01-19T00:06:07;26.00;41.90
63371;DHT22;49504;48.336;14.472;2023-01-19T00:11:08;26.00;41.90
63371;DHT22;49504;48.336;14.472;2023-01-19T00:16:10;26.00;41.90
63371;DHT22;49504;48.336;14.472;2023-01-19T00:21:12;26.00;41.90
63371;DHT22;49504;48.336;14.472;2023-01-19T00:26:14;26.00;41.90
63371;DHT22;49504;48.336;14.472;2023-01-19T00:31:16;26.00;41.90
63371;DHT22;49504;48.336;14.472;2023-01-19T00:36:18;26.00;41.90
63371;DHT22;49504;48.336;14.472;2023-01-19T00:41:19;26.00;42.00
63371;DHT22;49504;48.336;14.472;2023-01-19T00:46:20;26.00;42.00
63371;DHT22;49504;48.336;14.472;2023-01-19T00:51:23;26.00;41.90
63371;DHT22;49504;48.336;14.472;2023-01-19T00:56:24;26.00;42.00
63371;DHT22;49504;48.336;14.472;2023-01-19T01:01:25;26.00;42.00
63371;DHT22;49504;48.336;14.472;2023-01-19T01:06:29;26.00;42.10
63371;DHT22;49504;48.336;14.472;2023-01-19T01:11:30;26.00;42.00
63371;DHT22;49504;48.336;14.472;2023-01-19T01:16:31;26.00;41.90
63371;DHT22;49504;48.336;14.472;2023-01-19T01:24:39;26.00;41.50
63371;DHT22;49504;48.336;14.472;2023-01-19T01:29:40;26.00;42.00
63371;DHT22;49504;48.336;14.472;2023-01-19T01:34:41;26.00;42.00
63371;DHT22;49504;48.336;14.472;2023-01-19T01:42:16;25.90;41.40
63371;DHT22;49504;48.336;14.472;2023-01-19T01:47:19;25.90;42.00
63371;DHT22;49504;48.336;14.472;2023-01-19T01:52:25;26.00;42.00
63371;DHT22;49504;48.336;14.472;2023-01-19T01:57:29;26.00;42.10
63371;DHT22;49504;48.336;14.472;2023-01-19T02:02:31;26.00;42.00
63371;DHT22;49504;48.336;14.472;2023-01-19T02:10:29;26.00;41.50
63371;DHT22;49504;48.336;14.472;2023-01-19T02:19:52;26.00;41.50
63371;DHT22;49504;48.336;14.472;2023-01-19T02:24:54;25.90;41.90
63371;DHT22;49504;48.336;14.472;2023-01-19T02:29:55;25.90;42.00
63371;DHT22;49504;48.336;14.472;2023-01-19T02:34:57;25.90;42.00
63371;DHT22;49504;48.336;14.472;2023-01-19T02:40:01;25.90;42.00
63371;DHT22;49504;48.336;14.472;2023-01-19T02:45:04;25.90;42.00
63371;DHT22;49504;48.336;14.472;2023-01-19T02:50:30;25.90;41.90
63371;DHT22;49504;48.336;14.472;2023-01-19T02:55:46;25.90;41.90
63371;DHT22;49504;48.336;14.472;2023-01-19T03:01:01;26.00;42.00
63371;DHT22;49504;48.336;14.472;2023-01-19T03:06:10;25.90;41.90
63371;DHT22;49504;48.336;14.472;2023-01-19T03:13:02;26.00;41.50
63371;DHT22;49504;48.336;14.472;2023-01-19T03:18:31;25.90;41.30
63371;DHT22;49504;48.336;14.472;2023-01-19T03:23:35;25.90;41.90
63371;DHT22;49504;48.336;14.472;2023-01-19T03:28:40;25.90;41.90
63371;DHT22;49504;48.336;14.472;2023-01-19T03:33:45;26.00;41.90
63371;DHT22;49504;48.336;14.472;2023-01-19T03:40:57;25.90;41.30
63371;DHT22;49504;48.336;14.472;2023-01-19T03:46:00;25.90;41.80
63371;DHT22;49504;48.336;14.472;2023-01-19T03:51:05;26.00;41.90
63371;DHT22;49504;48.336;14.472;2023-01-19T03:56:16;26.00;41.80
63371;DHT22;49504;48.336;14.472;2023-01-19T04:01:19;25.90;41.80
63371;DHT22;49504;48.336;14.472;2023-01-19T04:06:20;25.90;41.80
63371;DHT22;49504;48.336;14.472;2023-01-19T04:11:24;26.00;41.80
63371;DHT22;49504;48.336;14.472;2023-01-19T04:16:29;25.90;41.80
63371;DHT22;49504;48.336;14.472;2023-01-19T04:21:30;26.00;41.90
63371;DHT22;49504;48.336;14.472;2023-01-19T04:26:34;26.00;41.90
63371;DHT22;49504;48.336;14.472;2023-01-19T04:31:35;26.00;42.00
63371;DHT22;49504;48.336;14.472;2023-01-19T04:36:36;26.00;41.90
63371;DHT22;49504;48.336;14.472;2023-01-19T04:41:39;26.00;41.90
63371;DHT22;49504;48.336;14.472;2023-01-19T04:46:40;26.00;41.90
63371;DHT22;49504;48.336;14.472;2023-01-19T04:51:42;26.00;41.80
63371;DHT22;49504;48.336;14.472;2023-01-19T04:58:38;25.90;41.20
63371;DHT22;49504;48.336;14.472;2023-01-19T05:03:40;26.00;41.80
63371;DHT22;49504;48.336;14.472;2023-01-19T05:08:41;25.90;41.60
63371;DHT22;49504;48.336;14.472;2023-01-19T05:17:28;26.00;41.30
63371;DHT22;49504;48.336;14.472;2023-01-19T05:22:29;26.00;41.80
63371;DHT22;49504;48.336;14.472;2023-01-19T05:27:30;26.00;41.80
63371;DHT22;49504;48.336;14.472;2023-01-19T05:36:52;26.00;41.30
63371;DHT22;49504;48.336;14.472;2023-01-19T05:43:46;25.90;41.20
63371;DHT22;49504;48.336;14.472;2023-01-19T05:48:47;26.00;41.80
63371;DHT22;49504;48.336;14.472;2023-01-19T05:53:48;25.90;41.80
63371;DHT22;49504;48.336;14.472;2023-01-19T05:58:50;25.90;41.80
63371;DHT22;49504;48.336;14.472;2023-01-19T06:03:51;25.90;41.80
63371;DHT22;49504;48.336;14.472;2023-01-19T06:08:53;25.90;41.80
63371;DHT22;49504;48.336;14.472;2023-01-19T06:13:55;25.90;41.80
63371;DHT22;49504;48.336;14.472;2023-01-19T06:18:57;25.90;41.80
63371;DHT22;49504;48.336;14.472;2023-01-19T06:23:58;25.90;41.80
63371;DHT22;49504;48.336;14.472;2023-01-19T06:29:01;25.90;41.80
63371;DHT22;49504;48.336;14.472;2023-01-19T06:34:02;25.90;41.80
63371;DHT22;49504;48.336;14.472;2023-01-19T06:39:03;25.90;41.80
63371;DHT22;49504;48.336;14.472;2023-01-19T06:44:06;25.90;41.70
63371;DHT22;49504;48.336;14.472;2023-01-19T06:49:07;25.90;41.70
63371;DHT22;49504;48.336;14.472;2023-01-19T06:54:08;25.90;41.80
63371;DHT22;49504;48.336;14.472;2023-01-19T06:59:44;25.90;41.30
63371;DHT22;49504;48.336;14.472;2023-01-19T07:04:45;25.80;41.70
63371;DHT22;49504;48.336;14.472;2023-01-19T07:09:46;25.80;41.70
63371;DHT22;49504;48.336;14.472;2023-01-19T07:14:49;25.90;41.70
63371;DHT22;49504;48.336;14.472;2023-01-19T07:19:50;25.80;41.70
63371;DHT22;49504;48.336;14.472;2023-01-19T07:24:51;25.80;41.60
63371;DHT22;49504;48.336;14.472;2023-01-19T07:29:53;25.80;41.60
63371;DHT22;49504;48.336;14.472;2023-01-19T07:34:54;25.80;41.60
63371;DHT22;49504;48.336;14.472;2023-01-19T07:39:55;25.80;41.60
63371;DHT22;49504;48.336;14.472;2023-01-19T07:44:58;25.90;41.60
63371;DHT22;49504;48.336;14.472;2023-01-19T07:49:59;25.80;41.60
63371;DHT22;49504;48.336;14.472;2023-01-19T07:55:00;25.80;41.50
63371;DHT22;49504;48.336;14.472;2023-01-19T08:00:04;25.90;41.60
63371;DHT22;49504;48.336;14.472;2023-01-19T08:05:13;25.90;41.60
63371;DHT22;49504;48.336;14.472;2023-01-19T08:10:15;25.80;41.50
63371;DHT22;49504;48.336;14.472;2023-01-19T08:15:18;25.80;41.50
63371;DHT22;49504;48.336;14.472;2023-01-19T08:20:19;25.80;41.40
63371;DHT22;49504;48.336;14.472;2023-01-19T08:25:20;25.90;41.50
63371;DHT22;49504;48.336;14.472;2023-01-19T08:30:23;25.80;41.40
63371;DHT22;49504;48.336;14.472;2023-01-19T08:35:24;25.90;41.50
63371;DHT22;49504;48.336;14.472;2023-01-19T08:40:25;25.90;41.40
63371;DHT22;49504;48.336;14.472;2023-01-19T08:45:28;25.90;41.40
63371;DHT22;49504;48.336;14.472;2023-01-19T08:50:30;25.80;41.30
63371;DHT22;49504;48.336;14.472;2023-01-19T08:55:33;25.90;41.30
63371;DHT22;49504;48.336;14.472;2023-01-19T09:00:37;25.80;41.20
63371;DHT22;49504;48.336;14.472;2023-01-19T09:07:28;25.90;40.90
63371;DHT22;49504;48.336;14.472;2023-01-19T09:12:30;25.90;41.30
63371;DHT22;49504;48.336;14.472;2023-01-19T09:17:31;25.80;41.20
63371;DHT22;49504;48.336;14.472;2023-01-19T09:22:33;25.80;41.20
63371;DHT22;49504;48.336;14.472;2023-01-19T09:29:26;25.80;40.80
63371;DHT22;49504;48.336;14.472;2023-01-19T09:34:28;25.90;41.20
63371;DHT22;49504;48.336;14.472;2023-01-19T09:51:04;25.90;40.80
63371;DHT22;49504;48.336;14.472;2023-01-19T09:56:11;25.90;41.90
63371;DHT22;49504;48.336;14.472;2023-01-19T10:01:21;25.80;41.20
63371;DHT22;49504;48.336;14.472;2023-01-19T10:06:45;25.80;41.20
63371;DHT22;49504;48.336;14.472;2023-01-19T10:11:50;25.90;41.20
63371;DHT22;49504;48.336;14.472;2023-01-19T10:17:00;25.90;41.20
63371;DHT22;49504;48.336;14.472;2023-01-19T10:22:18;25.80;41.20
63371;DHT22;49504;48.336;14.472;2023-01-19T10:27:23;25.80;41.10
63371;DHT22;49504;48.336;14.472;2023-01-19T10:32:28;25.90;41.20
63371;DHT22;49504;48.336;14.472;2023-01-19T10:37:37;25.80;41.10
63371;DHT22;49504;48.336;14.472;2023-01-19T10:42:40;25.90;41.10
63371;DHT22;49504;48.336;14.472;2023-01-19T10:51:26;25.80;40.60
63371;DHT22;49504;48.336;14.472;2023-01-19T10:56:32;25.80;41.00
63371;DHT22;49504;48.336;14.472;2023-01-19T11:01:34;25.80;40.90
63371;DHT22;49504;48.336;14.472;2023-01-19T11:06:37;25.80;41.00
63371;DHT22;49504;48.336;14.472;2023-01-19T11:11:46;25.80;41.00
63371;DHT22;49504;48.336;14.472;2023-01-19T11:17:20;25.80;40.40
63371;DHT22;49504;48.336;14.472;2023-01-19T11:22:27;25.80;41.00
63371;DHT22;49504;48.336;14.472;2023-01-19T11:27:30;25.80;40.90
63371;DHT22;49504;48.336;14.472;2023-01-19T11:36:17;25.80;40.50
63371;DHT22;49504;48.336;14.472;2023-01-19T11:42:38;25.80;40.40
63371;DHT22;49504;48.336;14.472;2023-01-19T11:47:42;25.80;41.00
63371;DHT22;49504;48.336;14.472;2023-01-19T11:52:46;25.80;40.90
63371;DHT22;49504;48.336;14.472;2023-01-19T11:57:52;25.80;40.90
63371;DHT22;49504;48.336;14.472;2023-01-19T12:02:57;25.80;40.90
63371;DHT22;49504;48.336;14.472;2023-01-19T12:08:04;25.80;41.00
63371;DHT22;49504;48.336;14.472;2023-01-19T12:13:16;25.80;40.90
63371;DHT22;49504;48.336;14.472;2023-01-19T12:18:21;25.80;40.90
63371;DHT22;49504;48.336;14.472;2023-01-19T12:23:41;25.80;40.90
63371;DHT22;49504;48.336;14.472;2023-01-19T12:28:48;25.80;40.90
63371;DHT22;49504;48.336;14.472;2023-01-19T12:33:50;25.80;40.90
63371;DHT22;49504;48.336;14.472;2023-01-19T12:38:53;25.80;40.90
63371;DHT22;49504;48.336;14.472;2023-01-19T12:44:20;25.80;40.90
63371;DHT22;49504;48.336;14.472;2023-01-19T12:49:30;25.80;40.90
63371;DHT22;49504;48.336;14.472;2023-01-19T12:54:33;25.80;40.80
63371;DHT22;49504;48.336;14.472;2023-01-19T12:59:36;25.90;40.90
63371;DHT22;49504;48.336;14.472;2023-01-19T13:04:38;25.90;40.80
63371;DHT22;49504;48.336;14.472;2023-01-19T13:09:39;25.80;40.90
63371;DHT22;49504;48.336;14.472;2023-01-19T13:14:42;25.80;41.00
63371;DHT22;49504;48.336;14.472;2023-01-19T13:19:48;25.80;41.10
63371;DHT22;49504;48.336;14.472;2023-01-19T13:25:06;25.80;41.20
63371;DHT22;49504;48.336;14.472;2023-01-19T13:30:15;25.80;41.80
63371;DHT22;49504;48.336;14.472;2023-01-19T13:35:18;25.90;41.20
63371;DHT22;49504;48.336;14.472;2023-01-19T13:40:22;25.90;40.90
63371;DHT22;49504;48.336;14.472;2023-01-19T13:45:31;25.90;40.70
63371;DHT22;49504;48.336;14.472;2023-01-19T13:50:35;25.90;40.40
63371;DHT22;49504;48.336;14.472;2023-01-19T13:55:37;25.80;40.60
63371;DHT22;49504;48.336;14.472;2023-01-19T14:00:44;25.90;40.30
63371;DHT22;49504;48.336;14.472;2023-01-19T14:05:49;25.90;40.30
63371;DHT22;49504;48.336;14.472;2023-01-19T14:11:00;25.80;40.20
63371;DHT22;49504;48.336;14.472;2023-01-19T14:16:06;25.80;40.30
63371;DHT22;49504;48.336;14.472;2023-01-19T14:21:17;25.90;40.20
63371;DHT22;49504;48.336;14.472;2023-01-19T14:26:43;25.80;40.20
63371;DHT22;49504;48.336;14.472;2023-01-19T14:31:49;25.90;40.40
63371;DHT22;49504;48.336;14.472;2023-01-19T14:36:52;25.90;40.40
63371;DHT22;49504;48.336;14.472;2023-01-19T14:41:58;25.90;40.50
63371;DHT22;49504;48.336;14.472;2023-01-19T14:47:03;25.90;40.40
63371;DHT22;49504;48.336;14.472;2023-01-19T14:52:14;25.90;40.50
63371;DHT22;49504;48.336;14.472;2023-01-19T14:57:19;25.90;40.40
63371;DHT22;49504;48.336;14.472;2023-01-19T15:02:21;25.90;40.40
63371;DHT22;49504;48.336;14.472;2023-01-19T15:07:23;25.90;40.50
63371;DHT22;49504;48.336;14.472;2023-01-19T15:12:27;25.90;40.50
63371;DHT22;49504;48.336;14.472;2023-01-19T15:17:39;25.90;39.90
63371;DHT22;49504;48.336;14.472;2023-01-19T15:22:42;25.90;40.10
63371;DHT22;49504;48.336;14.472;2023-01-19T15:27:44;25.90;40.20
63371;DHT22;49504;48.336;14.472;2023-01-19T15:32:46;25.90;40.20
63371;DHT22;49504;48.336;14.472;2023-01-19T15:37:48;25.90;40.20
63371;DHT22;49504;48.336;14.472;2023-01-19T15:46:10;25.90;39.80
63371;DHT22;49504;48.336;14.472;2023-01-19T15:51:14;26.00;40.40
63371;DHT22;49504;48.336;14.472;2023-01-19T15:56:18;26.00;40.30
63371;DHT22;49504;48.336;14.472;2023-01-19T16:01:47;26.00;39.70
63371;DHT22;49504;48.336;14.472;2023-01-19T16:06:49;26.00;40.30
63371;DHT22;49504;48.336;14.472;2023-01-19T16:11:53;26.00;40.30
63371;DHT22;49504;48.336;14.472;2023-01-19T16:16:56;26.00;40.20
63371;DHT22;49504;48.336;14.472;2023-01-19T16:21:57;26.00;40.30
63371;DHT22;49504;48.336;14.472;2023-01-19T16:26:59;26.00;40.30
63371;DHT22;49504;48.336;14.472;2023-01-19T16:32:01;26.00;40.30
63371;DHT22;49504;48.336;14.472;2023-01-19T16:37:02;26.00;40.30
63371;DHT22;49504;48.336;14.472;2023-01-19T16:42:03;26.00;40.30
63371;DHT22;49504;48.336;14.472;2023-01-19T16:47:06;26.00;39.80
63371;DHT22;49504;48.336;14.472;2023-01-19T16:52:07;26.00;39.50
63371;DHT22;49504;48.336;14.472;2023-01-19T16:57:09;26.00;39.60
63371;DHT22;49504;48.336;14.472;2023-01-19T17:02:12;26.00;39.60
63371;DHT22;49504;48.336;14.472;2023-01-19T17:07:13;26.00;40.00
63371;DHT22;49504;48.336;14.472;2023-01-19T17:12:14;26.00;39.80
63371;DHT22;49504;48.336;14.472;2023-01-19T17:18:10;26.00;39.50
63371;DHT22;49504;48.336;14.472;2023-01-19T17:23:11;26.00;40.00
63371;DHT22;49504;48.336;14.472;2023-01-19T17:28:13;25.90;39.90
63371;DHT22;49504;48.336;14.472;2023-01-19T17:33:15;26.00;40.10
63371;DHT22;49504;48.336;14.472;2023-01-19T17:38:17;25.90;40.10
63371;DHT22;49504;48.336;14.472;2023-01-19T17:43:18;25.90;40.20
63371;DHT22;49504;48.336;14.472;2023-01-19T17:48:21;25.90;40.60
63371;DHT22;49504;48.336;14.472;2023-01-19T17:53:22;25.90;40.60
63371;DHT22;49504;48.336;14.472;2023-01-19T17:58:24;26.00;40.90
63371;DHT22;49504;48.336;14.472;2023-01-19T18:03:26;26.00;40.90
63371;DHT22;49504;48.336;14.472;2023-01-19T18:08:27;26.00;40.90
63371;DHT22;49504;48.336;14.472;2023-01-19T18:13:28;26.00;40.90
63371;DHT22;49504;48.336;14.472;2023-01-19T18:18:31;26.00;41.00
63371;DHT22;49504;48.336;14.472;2023-01-19T18:23:33;26.00;40.90
63371;DHT22;49504;48.336;14.472;2023-01-19T18:28:35;26.00;40.90
63371;DHT22;49504;48.336;14.472;2023-01-19T18:33:38;26.10;40.90
63371;DHT22;49504;48.336;14.472;2023-01-19T18:38:39;26.10;40.90
63371;DHT22;49504;48.336;14.472;2023-01-19T18:43:40;26.00;40.90
63371;DHT22;49504;48.336;14.472;2023-01-19T18:48:43;26.00;40.80
63371;DHT22;49504;48.336;14.472;2023-01-19T18:53:45;26.10;40.90
63371;DHT22;49504;48.336;14.472;2023-01-19T18:58:46;26.10;40.80
63371;DHT22;49504;48.336;14.472;2023-01-19T19:03:49;26.00;40.70
63371;DHT22;49504;48.336;14.472;2023-01-19T19:08:51;26.00;40.70
63371;DHT22;49504;48.336;14.472;2023-01-19T19:13:55;26.10;40.80
63371;DHT22;49504;48.336;14.472;2023-01-19T19:18:59;26.10;40.70
63371;DHT22;49504;48.336;14.472;2023-01-19T19:24:00;26.10;40.80
63371;DHT22;49504;48.336;14.472;2023-01-19T19:29:01;26.10;40.70
63371;DHT22;49504;48.336;14.472;2023-01-19T19:34:04;26.10;40.70
63371;DHT22;49504;48.336;14.472;2023-01-19T19:42:47;26.00;40.10
63371;DHT22;49504;48.336;14.472;2023-01-19T19:47:48;26.10;40.70
63371;DHT22;49504;48.336;14.472;2023-01-19T19:52:49;26.10;40.70
63371;DHT22;49504;48.336;14.472;2023-01-19T19:57:51;26.10;40.70
63371;DHT22;49504;48.336;14.472;2023-01-19T20:02:52;26.10;40.70
63371;DHT22;49504;48.336;14.472;2023-01-19T20:07:54;26.10;40.80
63371;DHT22;49504;48.336;14.472;2023-01-19T20:12:56;26.10;40.70
63371;DHT22;49504;48.336;14.472;2023-01-19T20:17:57;26.10;40.70
63371;DHT22;49504;48.336;14.472;2023-01-19T20:22:58;26.10;40.80
63371;DHT22;49504;48.336;14.472;2023-01-19T20:28:01;26.10;40.80
63371;DHT22;49504;48.336;14.472;2023-01-19T20:33:02;26.10;40.80
63371;DHT22;49504;48.336;14.472;2023-01-19T20:38:03;26.10;40.80
63371;DHT22;49504;48.336;14.472;2023-01-19T20:43:06;26.10;40.90
63371;DHT22;49504;48.336;14.472;2023-01-19T20:50:22;26.00;40.20
63371;DHT22;49504;48.336;14.472;2023-01-19T20:55:23;26.10;41.10
63371;DHT22;49504;48.336;14.472;2023-01-19T21:00:24;26.00;40.90
63371;DHT22;49504;48.336;14.472;2023-01-19T21:05:27;26.10;41.00
63371;DHT22;49504;48.336;14.472;2023-01-19T21:10:28;26.10;41.00
63371;DHT22;49504;48.336;14.472;2023-01-19T21:15:29;26.10;41.10
63371;DHT22;49504;48.336;14.472;2023-01-19T21:20:32;26.10;41.10
63371;DHT22;49504;48.336;14.472;2023-01-19T21:25:33;26.10;41.20
63371;DHT22;49504;48.336;14.472;2023-01-19T21:30:35;26.10;41.20
63371;DHT22;49504;48.336;14.472;2023-01-19T21:35:38;26.10;41.20
63371;DHT22;49504;48.336;14.472;2023-01-19T21:40:39;26.00;41.10
63371;DHT22;49504;48.336;14.472;2023-01-19T21:45:41;26.10;41.20
63371;DHT22;49504;48.336;14.472;2023-01-19T21:50:43;26.00;41.10
63371;DHT22;49504;48.336;14.472;2023-01-19T21:55:44;26.00;41.20
63371;DHT22;49504;48.336;14.472;2023-01-19T22:00:46;26.00;41.20
63371;DHT22;49504;48.336;14.472;2023-01-19T22:05:48;26.10;41.20
63371;DHT22;49504;48.336;14.472;2023-01-19T22:10:49;26.10;41.20
63371;DHT22;49504;48.336;14.472;2023-01-19T22:15:58;26.00;41.20
63371;DHT22;49504;48.336;14.472;2023-01-19T22:21:07;26.00;41.10
63371;DHT22;49504;48.336;14.472;2023-01-19T22:26:40;26.00;40.50
63371;DHT22;49504;48.336;14.472;2023-01-19T22:36:37;26.00;40.50
63371;DHT22;49504;48.336;14.472;2023-01-19T22:41:39;26.00;41.00
63371;DHT22;49504;48.336;14.472;2023-01-19T22:46:41;26.00;40.90
63371;DHT22;49504;48.336;14.472;2023-01-19T22:51:45;26.00;40.90
63371;DHT22;49504;48.336;14.472;2023-01-19T22:56:46;26.00;40.90
63371;DHT22;49504;48.336;14.472;2023-01-19T23:01:48;26.00;40.80
63371;DHT22;49504;48.336;14.472;2023-01-19T23:10:08;26.10;40.40
63371;DHT22;49504;48.336;14.472;2023-01-19T23:15:10;26.10;40.80
63371;DHT22;49504;48.336;14.472;2023-01-19T23:20:12;26.10;40.80
63371;DHT22;49504;48.336;14.472;2023-01-19T23:25:14;26.00;40.70
63371;DHT22;49504;48.336;14.472;2023-01-19T23:30:16;26.10;40.80
63371;DHT22;49504;48.336;14.472;2023-01-19T23:35:17;26.10;40.70
63371;DHT22;49504;48.336;14.472;2023-01-19T23:40:20;26.10;40.70
63371;DHT22;49504;48.336;14.472;2023-01-19T23:45:21;26.10;40.70
63371;DHT22;49504;48.336;14.472;2023-01-19T23:50:23;26.00;40.60
63371;DHT22;49504;48.336;14.472;2023-01-19T23:55:26;26.10;40.70
